sensor_id;sensor_type;location;lat;lon;timestamp;temperature;humidity
7204;DHT22;3643;52.460;13.322;2023-01-15T00:01:05;7.40;99.90
7204;DHT22;3643;52.460;13.322;2023-01-15T00:03:44;7.40;99.90
7204;DHT22;3643;52.460;13.322;2023-01-15T00:06:13;7.40;99.90
7204;DHT22;3643;52.460;13.322;2023-01-15T00:08:42;7.40;99.90
7204;DHT22;3643;52.460;13.322;2023-01-15T00:11:11;7.50;99.90
7204;DHT22;3643;52.460;13.322;2023-01-15T00:13:40;7.50;99.90
7204;DHT22;3643;52.460;13.322;2023-01-15T00:16:11;7.70;99.90
7204;DHT22;3643;52.460;13.322;2023-01-15T00:18:40;7.50;99.90
7204;DHT22;3643;52.460;13.322;2023-01-15T00:21:10;7.50;99.90
7204;DHT22;3643;52.460;13.322;2023-01-15T00:23:39;7.50;99.90
7204;DHT22;3643;52.460;13.322;2023-01-15T00:26:29;7.50;99.90
7204;DHT22;3643;52.460;13.322;2023-01-15T00:29:14;7.50;99.90
7204;DHT22;3643;52.460;13.322;2023-01-15T00:31:49;7.50;99.90
7204;DHT22;3643;52.460;13.322;2023-01-15T00:34:17;7.50;99.90
7204;DHT22;3643;52.460;13.322;2023-01-15T00:36:45;7.60;99.90
7204;DHT22;3643;52.460;13.322;2023-01-15T00:39:13;7.60;99.90
7204;DHT22;3643;52.460;13.322;2023-01-15T00:41:43;7.60;99.90
7204;DHT22;3643;52.460;13.322;2023-01-15T00:44:11;7.60;99.90
7204;DHT22;3643;52.460;13.322;2023-01-15T00:46:39;7.60;99.90
7204;DHT22;3643;52.460;13.322;2023-01-15T00:49:08;7.60;99.90
7204;DHT22;3643;52.460;13.322;2023-01-15T00:51:36;7.60;99.90
7204;DHT22;3643;52.460;13.322;2023-01-15T00:54:05;7.70;99.90
7204;DHT22;3643;52.460;13.322;2023-01-15T00:56:34;7.60;99.90
7204;DHT22;3643;52.460;13.322;2023-01-15T00:59:04;7.60;99.90
7204;DHT22;3643;52.460;13.322;2023-01-15T01:01:33;7.70;99.90
7204;DHT22;3643;52.460;13.322;2023-01-15T01:04:02;7.60;99.90
7204;DHT22;3643;52.460;13.322;2023-01-15T01:06:30;7.60;99.90
7204;DHT22;3643;52.460;13.322;2023-01-15T01:08:58;7.60;99.90
7204;DHT22;3643;52.460;13.322;2023-01-15T01:11:27;7.60;99.90
7204;DHT22;3643;52.460;13.322;2023-01-15T01:14:00;7.60;99.90
7204;DHT22;3643;52.460;13.322;2023-01-15T01:16:32;7.60;99.90
7204;DHT22;3643;52.460;13.322;2023-01-15T01:19:04;7.70;99.90
7204;DHT22;3643;52.460;13.322;2023-01-15T01:21:33;7.70;99.90
7204;DHT22;3643;52.460;13.322;2023-01-15T01:24:02;7.80;99.90
7204;DHT22;3643;52.460;13.322;2023-01-15T01:26:31;7.80;99.90
7204;DHT22;3643;52.460;13.322;2023-01-15T01:29:00;7.80;99.90
7204;DHT22;3643;52.460;13.322;2023-01-15T01:31:30;7.80;99.90
7204;DHT22;3643;52.460;13.322;2023-01-15T01:33:59;7.80;99.90
7204;DHT22;3643;52.460;13.322;2023-01-15T01:36:29;7.80;99.90
7204;DHT22;3643;52.460;13.322;2023-01-15T01:38:58;7.80;99.90
7204;DHT22;3643;52.460;13.322;2023-01-15T01:41:28;7.80;99.90
7204;DHT22;3643;52.460;13.322;2023-01-15T01:43:58;7.80;99.90
7204;DHT22;3643;52.460;13.322;2023-01-15T01:46:28;7.90;99.90
7204;DHT22;3643;52.460;13.322;2023-01-15T01:49:02;7.90;99.90
7204;DHT22;3643;52.460;13.322;2023-01-15T01:51:34;7.90;99.90
7204;DHT22;3643;52.460;13.322;2023-01-15T01:54:04;7.90;99.90
7204;DHT22;3643;52.460;13.322;2023-01-15T01:56:34;7.90;99.90
7204;DHT22;3643;52.460;13.322;2023-01-15T01:59:04;7.90;99.90
7204;DHT22;3643;52.460;13.322;2023-01-15T02:01:34;7.90;99.90
7204;DHT22;3643;52.460;13.322;2023-01-15T02:04:05;8.00;99.90
7204;DHT22;3643;52.460;13.322;2023-01-15T02:06:35;8.00;99.90
7204;DHT22;3643;52.460;13.322;2023-01-15T02:09:05;7.90;99.90
7204;DHT22;3643;52.460;13.322;2023-01-15T02:11:34;7.90;99.90
7204;DHT22;3643;52.460;13.322;2023-01-15T02:14:07;8.00;99.90
7204;DHT22;3643;52.460;13.322;2023-01-15T02:16:41;8.00;99.90
7204;DHT22;3643;52.460;13.322;2023-01-15T02:19:21;8.00;99.90
7204;DHT22;3643;52.460;13.322;2023-01-15T02:22:00;8.00;99.90
7204;DHT22;3643;52.460;13.322;2023-01-15T02:24:36;8.00;99.90
7204;DHT22;3643;52.460;13.322;2023-01-15T02:27:14;8.00;99.90
7204;DHT22;3643;52.460;13.322;2023-01-15T02:29:49;8.00;99.90
7204;DHT22;3643;52.460;13.322;2023-01-15T02:32:27;8.00;99.90
7204;DHT22;3643;52.460;13.322;2023-01-15T02:35:01;8.00;99.90
7204;DHT22;3643;52.460;13.322;2023-01-15T02:37:34;8.00;99.90
7204;DHT22;3643;52.460;13.322;2023-01-15T02:40:06;8.00;99.90
7204;DHT22;3643;52.460;13.322;2023-01-15T02:42:37;8.00;99.90
7204;DHT22;3643;52.460;13.322;2023-01-15T02:45:08;8.00;99.90
7204;DHT22;3643;52.460;13.322;2023-01-15T02:47:39;8.00;99.90
7204;DHT22;3643;52.460;13.322;2023-01-15T02:50:14;8.00;99.90
7204;DHT22;3643;52.460;13.322;2023-01-15T02:52:47;8.10;99.90
7204;DHT22;3643;52.460;13.322;2023-01-15T02:55:19;8.00;99.90
7204;DHT22;3643;52.460;13.322;2023-01-15T02:57:52;8.10;99.90
7204;DHT22;3643;52.460;13.322;2023-01-15T03:00:23;8.00;99.90
7204;DHT22;3643;52.460;13.322;2023-01-15T03:02:58;8.00;99.90
7204;DHT22;3643;52.460;13.322;2023-01-15T03:05:31;8.10;99.90
7204;DHT22;3643;52.460;13.322;2023-01-15T03:08:06;8.10;99.90
7204;DHT22;3643;52.460;13.322;2023-01-15T03:10:41;8.10;99.90
7204;DHT22;3643;52.460;13.322;2023-01-15T03:13:15;8.10;99.90
7204;DHT22;3643;52.460;13.322;2023-01-15T03:15:50;8.10;99.90
7204;DHT22;3643;52.460;13.322;2023-01-15T03:18:44;8.10;99.90
7204;DHT22;3643;52.460;13.322;2023-01-15T03:21:18;8.10;99.90
7204;DHT22;3643;52.460;13.322;2023-01-15T03:23:51;8.10;99.90
7204;DHT22;3643;52.460;13.322;2023-01-15T03:26:20;8.10;99.90
7204;DHT22;3643;52.460;13.322;2023-01-15T03:28:50;8.10;99.90
7204;DHT22;3643;52.460;13.322;2023-01-15T03:31:19;8.10;99.90
7204;DHT22;3643;52.460;13.322;2023-01-15T03:33:48;8.10;99.90
7204;DHT22;3643;52.460;13.322;2023-01-15T03:36:16;8.10;99.90
7204;DHT22;3643;52.460;13.322;2023-01-15T03:38:44;8.10;99.90
7204;DHT22;3643;52.460;13.322;2023-01-15T03:41:23;8.10;99.90
7204;DHT22;3643;52.460;13.322;2023-01-15T03:44:03;8.10;99.90
7204;DHT22;3643;52.460;13.322;2023-01-15T03:46:44;8.20;99.90
7204;DHT22;3643;52.460;13.322;2023-01-15T03:49:20;8.20;99.90
7204;DHT22;3643;52.460;13.322;2023-01-15T03:51:56;8.20;99.90
7204;DHT22;3643;52.460;13.322;2023-01-15T03:54:32;8.20;99.90
7204;DHT22;3643;52.460;13.322;2023-01-15T03:57:06;8.20;99.90
7204;DHT22;3643;52.460;13.322;2023-01-15T03:59:39;8.20;99.90
7204;DHT22;3643;52.460;13.322;2023-01-15T04:02:11;8.20;99.90
7204;DHT22;3643;52.460;13.322;2023-01-15T04:04:43;8.20;99.90
7204;DHT22;3643;52.460;13.322;2023-01-15T04:07:12;8.20;99.90
7204;DHT22;3643;52.460;13.322;2023-01-15T04:09:40;8.20;99.90
7204;DHT22;3643;52.460;13.322;2023-01-15T04:12:09;8.30;99.90
7204;DHT22;3643;52.460;13.322;2023-01-15T04:14:39;8.20;99.90
7204;DHT22;3643;52.460;13.322;2023-01-15T04:17:08;7.90;99.90
7204;DHT22;3643;52.460;13.322;2023-01-15T04:19:36;7.70;99.90
7204;DHT22;3643;52.460;13.322;2023-01-15T04:22:04;7.60;99.90
7204;DHT22;3643;52.460;13.322;2023-01-15T04:24:33;7.30;99.90
7204;DHT22;3643;52.460;13.322;2023-01-15T04:27:01;7.10;99.90
7204;DHT22;3643;52.460;13.322;2023-01-15T04:29:29;6.80;99.90
7204;DHT22;3643;52.460;13.322;2023-01-15T04:31:59;6.60;99.90
7204;DHT22;3643;52.460;13.322;2023-01-15T04:34:28;6.40;99.90
7204;DHT22;3643;52.460;13.322;2023-01-15T04:36:57;6.30;99.90
7204;DHT22;3643;52.460;13.322;2023-01-15T04:39:25;6.20;99.90
7204;DHT22;3643;52.460;13.322;2023-01-15T04:41:54;6.10;99.90
7204;DHT22;3643;52.460;13.322;2023-01-15T04:44:39;6.00;99.90
7204;DHT22;3643;52.460;13.322;2023-01-15T04:47:09;6.00;99.90
7204;DHT22;3643;52.460;13.322;2023-01-15T04:49:38;5.80;99.90
7204;DHT22;3643;52.460;13.322;2023-01-15T04:52:06;5.70;99.90
7204;DHT22;3643;52.460;13.322;2023-01-15T04:54:35;5.70;99.90
7204;DHT22;3643;52.460;13.322;2023-01-15T04:57:05;5.50;99.90
7204;DHT22;3643;52.460;13.322;2023-01-15T04:59:33;5.40;99.90
7204;DHT22;3643;52.460;13.322;2023-01-15T05:02:02;5.30;99.90
7204;DHT22;3643;52.460;13.322;2023-01-15T05:04:34;5.20;99.90
7204;DHT22;3643;52.460;13.322;2023-01-15T05:07:04;5.10;99.90
7204;DHT22;3643;52.460;13.322;2023-01-15T05:09:32;5.10;99.90
7204;DHT22;3643;52.460;13.322;2023-01-15T05:12:01;5.00;99.90
7204;DHT22;3643;52.460;13.322;2023-01-15T05:14:29;5.00;99.90
7204;DHT22;3643;52.460;13.322;2023-01-15T05:16:57;5.00;99.90
7204;DHT22;3643;52.460;13.322;2023-01-15T05:19:25;5.00;99.90
7204;DHT22;3643;52.460;13.322;2023-01-15T05:21:55;4.90;99.90
7204;DHT22;3643;52.460;13.322;2023-01-15T05:24:23;4.90;99.90
7204;DHT22;3643;52.460;13.322;2023-01-15T05:26:51;4.90;99.90
7204;DHT22;3643;52.460;13.322;2023-01-15T05:29:19;4.90;99.90
7204;DHT22;3643;52.460;13.322;2023-01-15T05:31:47;4.90;99.90
7204;DHT22;3643;52.460;13.322;2023-01-15T05:34:15;4.90;99.90
7204;DHT22;3643;52.460;13.322;2023-01-15T05:36:43;4.90;99.90
7204;DHT22;3643;52.460;13.322;2023-01-15T05:39:13;4.90;99.90
7204;DHT22;3643;52.460;13.322;2023-01-15T05:41:41;4.90;99.90
7204;DHT22;3643;52.460;13.322;2023-01-15T05:44:21;4.90;99.90
7204;DHT22;3643;52.460;13.322;2023-01-15T05:46:52;4.90;99.90
7204;DHT22;3643;52.460;13.322;2023-01-15T05:49:22;4.90;99.90
7204;DHT22;3643;52.460;13.322;2023-01-15T05:51:51;5.00;99.90
7204;DHT22;3643;52.460;13.322;2023-01-15T05:54:22;5.00;99.90
7204;DHT22;3643;52.460;13.322;2023-01-15T05:56:51;5.00;99.90
7204;DHT22;3643;52.460;13.322;2023-01-15T05:59:21;5.00;99.90
7204;DHT22;3643;52.460;13.322;2023-01-15T06:01:49;5.00;99.90
7204;DHT22;3643;52.460;13.322;2023-01-15T06:04:18;5.00;99.90
7204;DHT22;3643;52.460;13.322;2023-01-15T06:06:48;4.90;99.90
7204;DHT22;3643;52.460;13.322;2023-01-15T06:09:16;5.00;99.90
7204;DHT22;3643;52.460;13.322;2023-01-15T06:11:45;4.90;99.90
7204;DHT22;3643;52.460;13.322;2023-01-15T06:14:14;5.00;99.90
7204;DHT22;3643;52.460;13.322;2023-01-15T06:16:42;5.00;99.90
7204;DHT22;3643;52.460;13.322;2023-01-15T06:19:11;5.00;99.90
7204;DHT22;3643;52.460;13.322;2023-01-15T06:21:40;5.00;99.90
7204;DHT22;3643;52.460;13.322;2023-01-15T06:24:08;5.00;99.90
7204;DHT22;3643;52.460;13.322;2023-01-15T06:26:37;5.00;99.90
7204;DHT22;3643;52.460;13.322;2023-01-15T06:29:07;5.00;99.90
7204;DHT22;3643;52.460;13.322;2023-01-15T06:31:35;5.10;99.90
7204;DHT22;3643;52.460;13.322;2023-01-15T06:34:03;5.10;99.90
7204;DHT22;3643;52.460;13.322;2023-01-15T06:36:32;5.10;99.90
7204;DHT22;3643;52.460;13.322;2023-01-15T06:39:00;5.20;99.90
7204;DHT22;3643;52.460;13.322;2023-01-15T06:41:31;5.10;99.90
7204;DHT22;3643;52.460;13.322;2023-01-15T06:44:17;5.20;99.90
7204;DHT22;3643;52.460;13.322;2023-01-15T06:47:15;5.10;99.90
7204;DHT22;3643;52.460;13.322;2023-01-15T06:49:52;5.10;99.90
7204;DHT22;3643;52.460;13.322;2023-01-15T06:52:21;5.10;99.90
7204;DHT22;3643;52.460;13.322;2023-01-15T06:54:49;5.10;99.90
7204;DHT22;3643;52.460;13.322;2023-01-15T06:57:17;5.00;99.90
7204;DHT22;3643;52.460;13.322;2023-01-15T06:59:47;5.00;99.90
7204;DHT22;3643;52.460;13.322;2023-01-15T07:02:16;5.10;99.90
7204;DHT22;3643;52.460;13.322;2023-01-15T07:04:44;5.10;99.90
7204;DHT22;3643;52.460;13.322;2023-01-15T07:07:14;5.10;99.90
7204;DHT22;3643;52.460;13.322;2023-01-15T07:09:42;5.10;99.90
7204;DHT22;3643;52.460;13.322;2023-01-15T07:12:10;5.10;99.90
7204;DHT22;3643;52.460;13.322;2023-01-15T07:14:38;5.10;99.90
7204;DHT22;3643;52.460;13.322;2023-01-15T07:17:07;5.10;99.90
7204;DHT22;3643;52.460;13.322;2023-01-15T07:19:36;5.00;99.90
7204;DHT22;3643;52.460;13.322;2023-01-15T07:22:04;5.00;99.90
7204;DHT22;3643;52.460;13.322;2023-01-15T07:24:33;5.00;99.90
7204;DHT22;3643;52.460;13.322;2023-01-15T07:27:01;4.90;99.90
7204;DHT22;3643;52.460;13.322;2023-01-15T07:29:29;4.90;99.90
7204;DHT22;3643;52.460;13.322;2023-01-15T07:31:57;4.80;99.90
7204;DHT22;3643;52.460;13.322;2023-01-15T07:34:27;4.90;99.90
7204;DHT22;3643;52.460;13.322;2023-01-15T07:36:55;4.90;99.90
7204;DHT22;3643;52.460;13.322;2023-01-15T07:39:23;4.90;99.90
7204;DHT22;3643;52.460;13.322;2023-01-15T07:41:51;4.90;99.90
7204;DHT22;3643;52.460;13.322;2023-01-15T07:44:37;4.90;99.90
7204;DHT22;3643;52.460;13.322;2023-01-15T07:47:23;5.00;99.90
7204;DHT22;3643;52.460;13.322;2023-01-15T07:50:12;4.90;99.90
7204;DHT22;3643;52.460;13.322;2023-01-15T07:52:40;5.00;99.90
7204;DHT22;3643;52.460;13.322;2023-01-15T07:55:09;5.00;99.90
7204;DHT22;3643;52.460;13.322;2023-01-15T07:57:38;5.00;99.90
7204;DHT22;3643;52.460;13.322;2023-01-15T08:00:09;5.00;99.90
7204;DHT22;3643;52.460;13.322;2023-01-15T08:02:38;4.90;99.90
7204;DHT22;3643;52.460;13.322;2023-01-15T08:05:06;4.90;99.90
7204;DHT22;3643;52.460;13.322;2023-01-15T08:07:37;4.90;99.90
7204;DHT22;3643;52.460;13.322;2023-01-15T08:10:07;4.90;99.90
7204;DHT22;3643;52.460;13.322;2023-01-15T08:12:35;4.90;99.90
7204;DHT22;3643;52.460;13.322;2023-01-15T08:15:23;4.90;99.90
7204;DHT22;3643;52.460;13.322;2023-01-15T08:17:52;5.00;99.90
7204;DHT22;3643;52.460;13.322;2023-01-15T08:20:23;4.90;99.90
7204;DHT22;3643;52.460;13.322;2023-01-15T08:22:53;5.00;99.90
7204;DHT22;3643;52.460;13.322;2023-01-15T08:25:22;5.20;99.90
7204;DHT22;3643;52.460;13.322;2023-01-15T08:27:52;5.00;99.90
7204;DHT22;3643;52.460;13.322;2023-01-15T08:30:23;4.90;99.90
7204;DHT22;3643;52.460;13.322;2023-01-15T08:32:51;4.90;99.90
7204;DHT22;3643;52.460;13.322;2023-01-15T08:35:19;4.90;99.90
7204;DHT22;3643;52.460;13.322;2023-01-15T08:37:47;4.90;99.90
7204;DHT22;3643;52.460;13.322;2023-01-15T08:40:17;4.90;99.90
7204;DHT22;3643;52.460;13.322;2023-01-15T08:42:45;5.10;99.90
7204;DHT22;3643;52.460;13.322;2023-01-15T08:45:13;5.10;99.90
7204;DHT22;3643;52.460;13.322;2023-01-15T08:47:41;5.00;99.90
7204;DHT22;3643;52.460;13.322;2023-01-15T08:50:10;5.00;99.90
7204;DHT22;3643;52.460;13.322;2023-01-15T08:52:38;5.00;99.90
7204;DHT22;3643;52.460;13.322;2023-01-15T08:55:07;5.10;99.90
7204;DHT22;3643;52.460;13.322;2023-01-15T08:57:37;5.20;99.90
7204;DHT22;3643;52.460;13.322;2023-01-15T09:00:06;5.20;99.90
7204;DHT22;3643;52.460;13.322;2023-01-15T09:02:35;5.20;99.90
7204;DHT22;3643;52.460;13.322;2023-01-15T09:05:03;5.20;99.90
7204;DHT22;3643;52.460;13.322;2023-01-15T09:07:31;5.20;99.90
7204;DHT22;3643;52.460;13.322;2023-01-15T09:10:01;5.40;99.90
7204;DHT22;3643;52.460;13.322;2023-01-15T09:12:30;5.40;99.90
7204;DHT22;3643;52.460;13.322;2023-01-15T09:14:59;5.40;99.90
7204;DHT22;3643;52.460;13.322;2023-01-15T09:17:30;5.40;99.90
7204;DHT22;3643;52.460;13.322;2023-01-15T09:19:59;5.20;99.90
7204;DHT22;3643;52.460;13.322;2023-01-15T09:22:28;5.20;99.90
7204;DHT22;3643;52.460;13.322;2023-01-15T09:24:57;5.30;99.90
7204;DHT22;3643;52.460;13.322;2023-01-15T09:27:25;5.30;99.90
7204;DHT22;3643;52.460;13.322;2023-01-15T09:29:54;5.40;99.90
7204;DHT22;3643;52.460;13.322;2023-01-15T09:32:23;5.50;99.90
7204;DHT22;3643;52.460;13.322;2023-01-15T09:34:51;5.40;99.90
7204;DHT22;3643;52.460;13.322;2023-01-15T09:37:20;5.40;99.90
7204;DHT22;3643;52.460;13.322;2023-01-15T09:39:48;5.50;99.90
7204;DHT22;3643;52.460;13.322;2023-01-15T09:42:26;5.60;99.90
7204;DHT22;3643;52.460;13.322;2023-01-15T09:45:14;5.50;99.90
7204;DHT22;3643;52.460;13.322;2023-01-15T09:47:58;5.60;99.90
7204;DHT22;3643;52.460;13.322;2023-01-15T09:50:38;5.50;99.90
7204;DHT22;3643;52.460;13.322;2023-01-15T09:53:21;5.50;99.90
7204;DHT22;3643;52.460;13.322;2023-01-15T09:55:53;5.60;99.90
7204;DHT22;3643;52.460;13.322;2023-01-15T09:58:30;5.60;99.90
7204;DHT22;3643;52.460;13.322;2023-01-15T10:00:59;5.70;99.90
7204;DHT22;3643;52.460;13.322;2023-01-15T10:03:34;5.60;99.90
7204;DHT22;3643;52.460;13.322;2023-01-15T10:06:09;5.50;99.90
7204;DHT22;3643;52.460;13.322;2023-01-15T10:08:43;5.60;99.90
7204;DHT22;3643;52.460;13.322;2023-01-15T10:11:27;5.70;99.90
7204;DHT22;3643;52.460;13.322;2023-01-15T10:14:30;5.60;99.90
7204;DHT22;3643;52.460;13.322;2023-01-15T10:17:24;5.60;99.90
7204;DHT22;3643;52.460;13.322;2023-01-15T10:19:56;5.60;99.90
7204;DHT22;3643;52.460;13.322;2023-01-15T10:22:48;5.50;99.90
7204;DHT22;3643;52.460;13.322;2023-01-15T10:25:24;5.60;99.90
7204;DHT22;3643;52.460;13.322;2023-01-15T10:27:58;5.70;99.90
7204;DHT22;3643;52.460;13.322;2023-01-15T10:30:35;5.80;99.90
7204;DHT22;3643;52.460;13.322;2023-01-15T10:33:14;5.80;99.90
7204;DHT22;3643;52.460;13.322;2023-01-15T10:35:54;5.70;99.90
7204;DHT22;3643;52.460;13.322;2023-01-15T10:38:31;5.90;99.90
7204;DHT22;3643;52.460;13.322;2023-01-15T10:41:09;5.90;99.90
7204;DHT22;3643;52.460;13.322;2023-01-15T10:43:48;5.90;99.90
7204;DHT22;3643;52.460;13.322;2023-01-15T10:46:21;5.80;99.90
7204;DHT22;3643;52.460;13.322;2023-01-15T10:48:51;5.90;99.90
7204;DHT22;3643;52.460;13.322;2023-01-15T10:51:24;5.90;99.90
7204;DHT22;3643;52.460;13.322;2023-01-15T10:53:57;6.00;99.90
7204;DHT22;3643;52.460;13.322;2023-01-15T10:56:31;6.10;99.90
7204;DHT22;3643;52.460;13.322;2023-01-15T10:59:12;5.90;99.90
7204;DHT22;3643;52.460;13.322;2023-01-15T11:01:42;5.90;99.90
7204;DHT22;3643;52.460;13.322;2023-01-15T11:04:11;6.10;99.90
7204;DHT22;3643;52.460;13.322;2023-01-15T11:06:41;6.10;99.90
7204;DHT22;3643;52.460;13.322;2023-01-15T11:09:18;6.20;99.90
7204;DHT22;3643;52.460;13.322;2023-01-15T11:11:49;6.10;99.90
7204;DHT22;3643;52.460;13.322;2023-01-15T11:14:36;6.30;99.90
7204;DHT22;3643;52.460;13.322;2023-01-15T11:17:34;6.40;99.90
7204;DHT22;3643;52.460;13.322;2023-01-15T11:20:26;6.30;99.90
7204;DHT22;3643;52.460;13.322;2023-01-15T11:23:05;6.20;99.90
7204;DHT22;3643;52.460;13.322;2023-01-15T11:25:33;6.00;99.90
7204;DHT22;3643;52.460;13.322;2023-01-15T11:28:04;6.20;99.90
7204;DHT22;3643;52.460;13.322;2023-01-15T11:30:36;6.10;99.90
7204;DHT22;3643;52.460;13.322;2023-01-15T11:33:17;6.20;99.90
7204;DHT22;3643;52.460;13.322;2023-01-15T11:35:53;6.00;99.90
7204;DHT22;3643;52.460;13.322;2023-01-15T11:38:26;6.00;99.90
7204;DHT22;3643;52.460;13.322;2023-01-15T11:40:56;6.00;99.90
7204;DHT22;3643;52.460;13.322;2023-01-15T11:43:27;6.10;99.90
7204;DHT22;3643;52.460;13.322;2023-01-15T11:46:25;5.90;99.90
7204;DHT22;3643;52.460;13.322;2023-01-15T11:49:08;6.00;99.90
7204;DHT22;3643;52.460;13.322;2023-01-15T11:51:56;6.00;99.90
7204;DHT22;3643;52.460;13.322;2023-01-15T11:54:26;6.00;99.90
7204;DHT22;3643;52.460;13.322;2023-01-15T11:56:57;6.00;99.90
7204;DHT22;3643;52.460;13.322;2023-01-15T11:59:25;6.00;99.90
7204;DHT22;3643;52.460;13.322;2023-01-15T12:01:55;6.10;99.90
7204;DHT22;3643;52.460;13.322;2023-01-15T12:04:33;6.10;99.90
7204;DHT22;3643;52.460;13.322;2023-01-15T12:07:04;6.00;99.90
7204;DHT22;3643;52.460;13.322;2023-01-15T12:10:00;6.10;99.90
7204;DHT22;3643;52.460;13.322;2023-01-15T12:12:38;6.10;99.90
7204;DHT22;3643;52.460;13.322;2023-01-15T12:15:29;6.00;99.90
7204;DHT22;3643;52.460;13.322;2023-01-15T12:18:15;6.20;99.90
7204;DHT22;3643;52.460;13.322;2023-01-15T12:20:59;6.20;99.90
7204;DHT22;3643;52.460;13.322;2023-01-15T12:23:48;6.20;99.90
7204;DHT22;3643;52.460;13.322;2023-01-15T12:26:26;6.20;99.90
7204;DHT22;3643;52.460;13.322;2023-01-15T12:29:04;6.50;99.90
7204;DHT22;3643;52.460;13.322;2023-01-15T12:31:36;6.00;99.90
7204;DHT22;3643;52.460;13.322;2023-01-15T12:34:14;6.10;99.90
7204;DHT22;3643;52.460;13.322;2023-01-15T12:36:46;6.10;99.90
7204;DHT22;3643;52.460;13.322;2023-01-15T12:39:19;6.20;99.90
7204;DHT22;3643;52.460;13.322;2023-01-15T12:41:53;6.30;99.90
7204;DHT22;3643;52.460;13.322;2023-01-15T12:44:43;6.40;99.90
7204;DHT22;3643;52.460;13.322;2023-01-15T12:47:35;6.50;99.90
7204;DHT22;3643;52.460;13.322;2023-01-15T12:50:17;6.60;99.90
7204;DHT22;3643;52.460;13.322;2023-01-15T12:52:50;6.70;99.90
7204;DHT22;3643;52.460;13.322;2023-01-15T12:55:22;6.70;99.90
7204;DHT22;3643;52.460;13.322;2023-01-15T12:57:56;6.80;99.90
7204;DHT22;3643;52.460;13.322;2023-01-15T13:00:29;6.70;99.90
7204;DHT22;3643;52.460;13.322;2023-01-15T13:03:06;6.70;99.90
7204;DHT22;3643;52.460;13.322;2023-01-15T13:05:40;6.70;99.90
7204;DHT22;3643;52.460;13.322;2023-01-15T13:08:19;6.80;99.90
7204;DHT22;3643;52.460;13.322;2023-01-15T13:10:49;6.80;99.90
7204;DHT22;3643;52.460;13.322;2023-01-15T13:13:20;6.90;99.90
7204;DHT22;3643;52.460;13.322;2023-01-15T13:16:01;7.20;99.90
7204;DHT22;3643;52.460;13.322;2023-01-15T13:18:40;6.90;99.90
7204;DHT22;3643;52.460;13.322;2023-01-15T13:21:15;7.00;99.90
7204;DHT22;3643;52.460;13.322;2023-01-15T13:24:06;7.00;99.90
7204;DHT22;3643;52.460;13.322;2023-01-15T13:26:57;7.00;99.90
7204;DHT22;3643;52.460;13.322;2023-01-15T13:29:41;6.90;99.90
7204;DHT22;3643;52.460;13.322;2023-01-15T13:32:14;6.90;99.90
7204;DHT22;3643;52.460;13.322;2023-01-15T13:34:47;6.80;99.90
7204;DHT22;3643;52.460;13.322;2023-01-15T13:37:24;6.70;99.90
7204;DHT22;3643;52.460;13.322;2023-01-15T13:39:55;6.70;99.90
7204;DHT22;3643;52.460;13.322;2023-01-15T13:42:25;6.70;99.90
7204;DHT22;3643;52.460;13.322;2023-01-15T13:45:06;6.60;99.90
7204;DHT22;3643;52.460;13.322;2023-01-15T13:47:49;6.50;99.90
7204;DHT22;3643;52.460;13.322;2023-01-15T13:50:28;6.50;99.90
7204;DHT22;3643;52.460;13.322;2023-01-15T13:53:06;6.40;99.90
7204;DHT22;3643;52.460;13.322;2023-01-15T13:55:38;6.40;99.90
7204;DHT22;3643;52.460;13.322;2023-01-15T13:58:20;6.40;99.90
7204;DHT22;3643;52.460;13.322;2023-01-15T14:01:00;6.50;99.90
7204;DHT22;3643;52.460;13.322;2023-01-15T14:03:30;6.50;99.90
7204;DHT22;3643;52.460;13.322;2023-01-15T14:06:00;6.60;99.90
7204;DHT22;3643;52.460;13.322;2023-01-15T14:08:38;6.60;99.90
7204;DHT22;3643;52.460;13.322;2023-01-15T14:11:29;6.60;99.90
7204;DHT22;3643;52.460;13.322;2023-01-15T14:14:26;6.60;99.90
7204;DHT22;3643;52.460;13.322;2023-01-15T14:17:10;6.60;99.90
7204;DHT22;3643;52.460;13.322;2023-01-15T14:19:59;6.50;99.90
7204;DHT22;3643;52.460;13.322;2023-01-15T14:25:43;6.40;99.90
7204;DHT22;3643;52.460;13.322;2023-01-15T14:28:32;6.30;99.90
7204;DHT22;3643;52.460;13.322;2023-01-15T14:31:15;6.40;99.90
7204;DHT22;3643;52.460;13.322;2023-01-15T14:33:57;6.40;99.90
7204;DHT22;3643;52.460;13.322;2023-01-15T14:36:37;6.30;99.90
7204;DHT22;3643;52.460;13.322;2023-01-15T14:39:21;6.30;99.90
7204;DHT22;3643;52.460;13.322;2023-01-15T14:41:57;6.20;99.90
7204;DHT22;3643;52.460;13.322;2023-01-15T14:44:44;6.20;99.90
7204;DHT22;3643;52.460;13.322;2023-01-15T14:47:30;6.20;99.90
7204;DHT22;3643;52.460;13.322;2023-01-15T14:50:24;6.10;99.90
7204;DHT22;3643;52.460;13.322;2023-01-15T14:52:57;6.00;99.90
7204;DHT22;3643;52.460;13.322;2023-01-15T14:55:27;6.10;99.90
7204;DHT22;3643;52.460;13.322;2023-01-15T14:57:59;6.10;99.90
7204;DHT22;3643;52.460;13.322;2023-01-15T15:00:33;6.10;99.90
7204;DHT22;3643;52.460;13.322;2023-01-15T15:03:11;6.20;99.90
7204;DHT22;3643;52.460;13.322;2023-01-15T15:05:43;6.20;99.90
7204;DHT22;3643;52.460;13.322;2023-01-15T15:08:15;6.20;99.90
7204;DHT22;3643;52.460;13.322;2023-01-15T15:10:49;6.20;99.90
7204;DHT22;3643;52.460;13.322;2023-01-15T15:13:27;6.20;99.90
7204;DHT22;3643;52.460;13.322;2023-01-15T15:16:05;6.10;99.90
7204;DHT22;3643;52.460;13.322;2023-01-15T15:18:38;6.00;99.90
7204;DHT22;3643;52.460;13.322;2023-01-15T15:21:15;6.00;99.90
7204;DHT22;3643;52.460;13.322;2023-01-15T15:23:55;5.90;99.90
7204;DHT22;3643;52.460;13.322;2023-01-15T15:26:27;5.80;99.90
7204;DHT22;3643;52.460;13.322;2023-01-15T15:28:57;5.70;99.90
7204;DHT22;3643;52.460;13.322;2023-01-15T15:31:27;5.70;99.90
7204;DHT22;3643;52.460;13.322;2023-01-15T15:33:56;5.60;99.90
7204;DHT22;3643;52.460;13.322;2023-01-15T15:36:30;5.80;99.90
7204;DHT22;3643;52.460;13.322;2023-01-15T15:39:02;5.50;99.90
7204;DHT22;3643;52.460;13.322;2023-01-15T15:41:34;5.40;99.90
7204;DHT22;3643;52.460;13.322;2023-01-15T15:44:31;5.40;99.90
7204;DHT22;3643;52.460;13.322;2023-01-15T15:47:20;5.30;99.90
7204;DHT22;3643;52.460;13.322;2023-01-15T15:50:17;5.30;99.90
7204;DHT22;3643;52.460;13.322;2023-01-15T15:52:49;5.30;99.90
7204;DHT22;3643;52.460;13.322;2023-01-15T15:55:19;5.30;99.90
7204;DHT22;3643;52.460;13.322;2023-01-15T15:57:51;5.20;99.90
7204;DHT22;3643;52.460;13.322;2023-01-15T16:00:27;5.30;99.90
7204;DHT22;3643;52.460;13.322;2023-01-15T16:03:00;5.30;99.90
7204;DHT22;3643;52.460;13.322;2023-01-15T16:05:30;5.20;99.90
7204;DHT22;3643;52.460;13.322;2023-01-15T16:08:16;5.20;99.90
7204;DHT22;3643;52.460;13.322;2023-01-15T16:10:48;5.10;99.90
7204;DHT22;3643;52.460;13.322;2023-01-15T16:13:22;5.00;99.90
7204;DHT22;3643;52.460;13.322;2023-01-15T16:15:52;5.00;99.90
7204;DHT22;3643;52.460;13.322;2023-01-15T16:18:24;4.90;99.90
7204;DHT22;3643;52.460;13.322;2023-01-15T16:20:55;4.80;99.90
7204;DHT22;3643;52.460;13.322;2023-01-15T16:23:27;4.80;99.90
7204;DHT22;3643;52.460;13.322;2023-01-15T16:26:02;4.70;99.90
7204;DHT22;3643;52.460;13.322;2023-01-15T16:28:35;4.80;99.90
7204;DHT22;3643;52.460;13.322;2023-01-15T16:31:07;4.80;99.90
7204;DHT22;3643;52.460;13.322;2023-01-15T16:33:36;4.70;99.90
7204;DHT22;3643;52.460;13.322;2023-01-15T16:36:06;4.70;99.90
7204;DHT22;3643;52.460;13.322;2023-01-15T16:38:40;4.70;99.90
7204;DHT22;3643;52.460;13.322;2023-01-15T16:41:17;4.60;99.90
7204;DHT22;3643;52.460;13.322;2023-01-15T16:43:51;4.50;99.90
7204;DHT22;3643;52.460;13.322;2023-01-15T16:46:21;4.60;99.90